sensor_id;sensor_type;location;lat;lon;timestamp;P1;durP1;ratioP1;P2;durP2;ratioP2
7051;SDS011;3567;52.444;13.556;2023-07-16T00:02:22;10.52;;;9.43;;
7051;SDS011;3567;52.444;13.556;2023-07-16T00:04:47;10.07;;;8.90;;
7051;SDS011;3567;52.444;13.556;2023-07-16T00:07:12;8.82;;;7.88;;
7051;SDS011;3567;52.444;13.556;2023-07-16T00:09:38;8.23;;;7.40;;
7051;SDS011;3567;52.444;13.556;2023-07-16T00:12:03;7.15;;;6.40;;
7051;SDS011;3567;52.444;13.556;2023-07-16T00:14:29;7.88;;;7.18;;
7051;SDS011;3567;52.444;13.556;2023-07-16T00:16:54;7.75;;;6.78;;
7051;SDS011;3567;52.444;13.556;2023-07-16T00:19:19;7.10;;;6.45;;
7051;SDS011;3567;52.444;13.556;2023-07-16T00:21:45;6.93;;;6.43;;
7051;SDS011;3567;52.444;13.556;2023-07-16T00:24:10;6.38;;;5.90;;
7051;SDS011;3567;52.444;13.556;2023-07-16T00:26:35;6.20;;;5.65;;
7051;SDS011;3567;52.444;13.556;2023-07-16T00:29:01;6.28;;;5.65;;
7051;SDS011;3567;52.444;13.556;2023-07-16T00:31:26;6.85;;;6.15;;
7051;SDS011;3567;52.444;13.556;2023-07-16T00:33:51;6.57;;;5.93;;
7051;SDS011;3567;52.444;13.556;2023-07-16T00:36:17;6.55;;;6.03;;
7051;SDS011;3567;52.444;13.556;2023-07-16T00:38:42;7.63;;;6.30;;
7051;SDS011;3567;52.444;13.556;2023-07-16T00:41:08;7.57;;;5.97;;
7051;SDS011;3567;52.444;13.556;2023-07-16T00:43:33;6.55;;;6.00;;
7051;SDS011;3567;52.444;13.556;2023-07-16T00:45:59;7.13;;;6.22;;
7051;SDS011;3567;52.444;13.556;2023-07-16T00:48:24;7.32;;;6.05;;
7051;SDS011;3567;52.444;13.556;2023-07-16T00:50:50;9.18;;;5.95;;
7051;SDS011;3567;52.444;13.556;2023-07-16T00:53:19;11.20;;;5.75;;
7051;SDS011;3567;52.444;13.556;2023-07-16T00:55:45;5.50;;;5.18;;
7051;SDS011;3567;52.444;13.556;2023-07-16T00:58:10;6.25;;;5.85;;
7051;SDS011;3567;52.444;13.556;2023-07-16T01:00:37;7.22;;;5.97;;
7051;SDS011;3567;52.444;13.556;2023-07-16T01:03:07;6.90;;;5.93;;
7051;SDS011;3567;52.444;13.556;2023-07-16T01:08:41;7.68;;;6.70;;
7051;SDS011;3567;52.444;13.556;2023-07-16T01:11:11;11.27;;;6.40;;
7051;SDS011;3567;52.444;13.556;2023-07-16T01:13:37;6.43;;;5.93;;
7051;SDS011;3567;52.444;13.556;2023-07-16T01:16:04;7.63;;;6.93;;
7051;SDS011;3567;52.444;13.556;2023-07-16T01:18:29;7.47;;;6.75;;
7051;SDS011;3567;52.444;13.556;2023-07-16T01:20:55;7.95;;;7.18;;
7051;SDS011;3567;52.444;13.556;2023-07-16T01:31:39;9.32;;;8.52;;
7051;SDS011;3567;52.444;13.556;2023-07-16T01:34:06;8.75;;;7.95;;
7051;SDS011;3567;52.444;13.556;2023-07-16T01:36:32;8.85;;;7.82;;
7051;SDS011;3567;52.444;13.556;2023-07-16T01:38:59;7.35;;;6.63;;
7051;SDS011;3567;52.444;13.556;2023-07-16T01:41:26;6.95;;;6.38;;
7051;SDS011;3567;52.444;13.556;2023-07-16T01:43:51;7.07;;;6.55;;
7051;SDS011;3567;52.444;13.556;2023-07-16T01:46:17;6.28;;;5.70;;
7051;SDS011;3567;52.444;13.556;2023-07-16T01:48:42;5.97;;;5.38;;
7051;SDS011;3567;52.444;13.556;2023-07-16T01:51:08;5.78;;;5.30;;
7051;SDS011;3567;52.444;13.556;2023-07-16T01:53:33;6.00;;;5.53;;
7051;SDS011;3567;52.444;13.556;2023-07-16T01:56:00;5.10;;;4.70;;
7051;SDS011;3567;52.444;13.556;2023-07-16T01:58:27;5.25;;;4.80;;
7051;SDS011;3567;52.444;13.556;2023-07-16T02:00:52;6.05;;;4.32;;
7051;SDS011;3567;52.444;13.556;2023-07-16T02:03:17;7.07;;;5.13;;
7051;SDS011;3567;52.444;13.556;2023-07-16T02:05:43;5.35;;;4.95;;
7051;SDS011;3567;52.444;13.556;2023-07-16T02:08:08;5.43;;;4.57;;
7051;SDS011;3567;52.444;13.556;2023-07-16T02:10:34;5.35;;;4.85;;
7051;SDS011;3567;52.444;13.556;2023-07-16T02:12:59;4.70;;;4.40;;
7051;SDS011;3567;52.444;13.556;2023-07-16T02:15:24;4.72;;;4.20;;
7051;SDS011;3567;52.444;13.556;2023-07-16T02:17:50;4.30;;;3.90;;
7051;SDS011;3567;52.444;13.556;2023-07-16T02:20:15;4.10;;;3.90;;
7051;SDS011;3567;52.444;13.556;2023-07-16T02:22:41;5.82;;;3.40;;
7051;SDS011;3567;52.444;13.556;2023-07-16T02:25:07;3.80;;;3.50;;
7051;SDS011;3567;52.444;13.556;2023-07-16T02:27:34;3.67;;;3.28;;
7051;SDS011;3567;52.444;13.556;2023-07-16T02:30:01;5.60;;;3.60;;
7051;SDS011;3567;52.444;13.556;2023-07-16T02:32:26;3.17;;;3.05;;
7051;SDS011;3567;52.444;13.556;2023-07-16T02:34:52;3.72;;;2.90;;
7051;SDS011;3567;52.444;13.556;2023-07-16T02:37:17;4.38;;;2.78;;
7051;SDS011;3567;52.444;13.556;2023-07-16T02:39:44;2.75;;;2.53;;
7051;SDS011;3567;52.444;13.556;2023-07-16T02:42:10;2.58;;;2.35;;
7051;SDS011;3567;52.444;13.556;2023-07-16T02:44:35;3.10;;;2.92;;
7051;SDS011;3567;52.444;13.556;2023-07-16T02:47:06;2.30;;;2.20;;
7051;SDS011;3567;52.444;13.556;2023-07-16T02:49:32;2.33;;;2.10;;
7051;SDS011;3567;52.444;13.556;2023-07-16T02:51:58;3.38;;;2.35;;
7051;SDS011;3567;52.444;13.556;2023-07-16T02:54:23;3.83;;;3.53;;
7051;SDS011;3567;52.444;13.556;2023-07-16T02:56:48;4.03;;;3.58;;
7051;SDS011;3567;52.444;13.556;2023-07-16T02:59:14;2.42;;;2.10;;
7051;SDS011;3567;52.444;13.556;2023-07-16T03:01:39;2.30;;;2.10;;
7051;SDS011;3567;52.444;13.556;2023-07-16T03:04:04;2.95;;;2.65;;
7051;SDS011;3567;52.444;13.556;2023-07-16T03:06:30;3.22;;;2.92;;
7051;SDS011;3567;52.444;13.556;2023-07-16T03:08:55;3.78;;;2.65;;
7051;SDS011;3567;52.444;13.556;2023-07-16T03:11:21;2.97;;;2.63;;
7051;SDS011;3567;52.444;13.556;2023-07-16T03:13:47;4.93;;;2.28;;
7051;SDS011;3567;52.444;13.556;2023-07-16T03:16:12;3.30;;;2.90;;
7051;SDS011;3567;52.444;13.556;2023-07-16T03:18:37;2.97;;;2.67;;
7051;SDS011;3567;52.444;13.556;2023-07-16T03:21:03;3.70;;;2.92;;
7051;SDS011;3567;52.444;13.556;2023-07-16T03:23:28;3.00;;;2.80;;
7051;SDS011;3567;52.444;13.556;2023-07-16T03:25:54;4.18;;;2.65;;
7051;SDS011;3567;52.444;13.556;2023-07-16T03:28:19;2.65;;;2.53;;
7051;SDS011;3567;52.444;13.556;2023-07-16T03:30:48;2.53;;;2.42;;
7051;SDS011;3567;52.444;13.556;2023-07-16T03:33:14;3.03;;;2.92;;
7051;SDS011;3567;52.444;13.556;2023-07-16T03:35:42;2.88;;;2.78;;
7051;SDS011;3567;52.444;13.556;2023-07-16T03:38:08;3.53;;;3.03;;
7051;SDS011;3567;52.444;13.556;2023-07-16T03:40:33;2.88;;;2.78;;
7051;SDS011;3567;52.444;13.556;2023-07-16T03:42:59;2.80;;;2.70;;
7051;SDS011;3567;52.444;13.556;2023-07-16T03:45:24;2.83;;;2.63;;
7051;SDS011;3567;52.444;13.556;2023-07-16T03:47:50;3.13;;;2.83;;
7051;SDS011;3567;52.444;13.556;2023-07-16T03:50:15;4.30;;;3.85;;
7051;SDS011;3567;52.444;13.556;2023-07-16T03:52:40;4.60;;;3.38;;
7051;SDS011;3567;52.444;13.556;2023-07-16T03:55:06;3.95;;;3.38;;
7051;SDS011;3567;52.444;13.556;2023-07-16T03:57:32;5.63;;;3.78;;
7051;SDS011;3567;52.444;13.556;2023-07-16T03:59:57;3.83;;;3.53;;
7051;SDS011;3567;52.444;13.556;2023-07-16T04:02:23;5.55;;;3.75;;
7051;SDS011;3567;52.444;13.556;2023-07-16T04:04:49;4.45;;;4.05;;
7051;SDS011;3567;52.444;13.556;2023-07-16T04:07:15;4.40;;;4.00;;
7051;SDS011;3567;52.444;13.556;2023-07-16T04:09:40;10.52;;;9.52;;
7051;SDS011;3567;52.444;13.556;2023-07-16T04:12:06;7.35;;;6.43;;
7051;SDS011;3567;52.444;13.556;2023-07-16T04:14:32;7.65;;;6.95;;
7051;SDS011;3567;52.444;13.556;2023-07-16T04:16:58;13.05;;;6.22;;
7051;SDS011;3567;52.444;13.556;2023-07-16T04:19:23;5.70;;;5.22;;
7051;SDS011;3567;52.444;13.556;2023-07-16T04:21:49;9.80;;;8.07;;
7051;SDS011;3567;52.444;13.556;2023-07-16T04:24:14;7.82;;;6.80;;
7051;SDS011;3567;52.444;13.556;2023-07-16T04:26:39;7.55;;;6.93;;
7051;SDS011;3567;52.444;13.556;2023-07-16T04:29:05;6.45;;;5.95;;
7051;SDS011;3567;52.444;13.556;2023-07-16T04:31:30;7.97;;;7.28;;
7051;SDS011;3567;52.444;13.556;2023-07-16T04:33:55;6.82;;;6.22;;
7051;SDS011;3567;52.444;13.556;2023-07-16T04:36:21;7.07;;;6.55;;
7051;SDS011;3567;52.444;13.556;2023-07-16T04:38:48;6.50;;;6.00;;
7051;SDS011;3567;52.444;13.556;2023-07-16T04:41:13;10.52;;;7.50;;
7051;SDS011;3567;52.444;13.556;2023-07-16T04:43:39;7.65;;;7.05;;
7051;SDS011;3567;52.444;13.556;2023-07-16T04:46:04;8.82;;;8.02;;
7051;SDS011;3567;52.444;13.556;2023-07-16T04:48:30;13.43;;;9.68;;
7051;SDS011;3567;52.444;13.556;2023-07-16T04:50:55;9.80;;;8.68;;
7051;SDS011;3567;52.444;13.556;2023-07-16T04:53:21;16.98;;;15.20;;
7051;SDS011;3567;52.444;13.556;2023-07-16T04:55:47;8.85;;;8.15;;
7051;SDS011;3567;52.444;13.556;2023-07-16T04:58:14;10.27;;;8.93;;
7051;SDS011;3567;52.444;13.556;2023-07-16T05:00:39;8.18;;;7.47;;
7051;SDS011;3567;52.444;13.556;2023-07-16T05:03:05;9.40;;;8.45;;
7051;SDS011;3567;52.444;13.556;2023-07-16T05:05:31;7.55;;;6.80;;
7051;SDS011;3567;52.444;13.556;2023-07-16T05:07:56;9.73;;;8.93;;
7051;SDS011;3567;52.444;13.556;2023-07-16T05:10:21;8.13;;;7.50;;
7051;SDS011;3567;52.444;13.556;2023-07-16T05:12:47;9.52;;;8.70;;
7051;SDS011;3567;52.444;13.556;2023-07-16T05:15:12;6.32;;;5.93;;
7051;SDS011;3567;52.444;13.556;2023-07-16T05:17:38;6.60;;;6.03;;
7051;SDS011;3567;52.444;13.556;2023-07-16T05:20:03;8.25;;;6.75;;
7051;SDS011;3567;52.444;13.556;2023-07-16T05:22:29;6.40;;;5.80;;
7051;SDS011;3567;52.444;13.556;2023-07-16T05:24:55;6.55;;;6.00;;
7051;SDS011;3567;52.444;13.556;2023-07-16T05:27:20;8.00;;;5.30;;
7051;SDS011;3567;52.444;13.556;2023-07-16T05:29:45;5.68;;;5.28;;
7051;SDS011;3567;52.444;13.556;2023-07-16T05:32:11;6.25;;;5.75;;
7051;SDS011;3567;52.444;13.556;2023-07-16T05:34:36;6.18;;;5.72;;
7051;SDS011;3567;52.444;13.556;2023-07-16T05:37:02;4.68;;;4.38;;
7051;SDS011;3567;52.444;13.556;2023-07-16T05:39:28;6.35;;;5.40;;
7051;SDS011;3567;52.444;13.556;2023-07-16T05:41:53;5.85;;;5.35;;
7051;SDS011;3567;52.444;13.556;2023-07-16T05:44:18;4.20;;;3.97;;
7051;SDS011;3567;52.444;13.556;2023-07-16T05:46:45;5.57;;;3.78;;
7051;SDS011;3567;52.444;13.556;2023-07-16T05:49:10;4.20;;;3.90;;
7051;SDS011;3567;52.444;13.556;2023-07-16T05:51:36;4.07;;;3.78;;
7051;SDS011;3567;52.444;13.556;2023-07-16T05:54:01;4.40;;;4.03;;
7051;SDS011;3567;52.444;13.556;2023-07-16T05:56:27;6.10;;;5.20;;
7051;SDS011;3567;52.444;13.556;2023-07-16T05:58:52;3.55;;;3.35;;
7051;SDS011;3567;52.444;13.556;2023-07-16T06:01:18;4.43;;;4.00;;
7051;SDS011;3567;52.444;13.556;2023-07-16T06:03:43;4.55;;;3.17;;
7051;SDS011;3567;52.444;13.556;2023-07-16T06:06:09;4.07;;;3.58;;
7051;SDS011;3567;52.444;13.556;2023-07-16T06:08:34;3.75;;;3.53;;
7051;SDS011;3567;52.444;13.556;2023-07-16T06:11:00;4.15;;;3.85;;
7051;SDS011;3567;52.444;13.556;2023-07-16T06:13:25;4.45;;;3.10;;
7051;SDS011;3567;52.444;13.556;2023-07-16T06:15:51;3.15;;;2.95;;
7051;SDS011;3567;52.444;13.556;2023-07-16T06:18:16;3.03;;;2.85;;
7051;SDS011;3567;52.444;13.556;2023-07-16T06:20:45;3.83;;;3.30;;
7051;SDS011;3567;52.444;13.556;2023-07-16T06:23:11;4.22;;;3.33;;
7051;SDS011;3567;52.444;13.556;2023-07-16T06:25:37;3.28;;;3.05;;
7051;SDS011;3567;52.444;13.556;2023-07-16T06:28:03;3.20;;;2.95;;
7051;SDS011;3567;52.444;13.556;2023-07-16T06:30:28;3.13;;;2.67;;
7051;SDS011;3567;52.444;13.556;2023-07-16T06:32:55;4.47;;;3.30;;
7051;SDS011;3567;52.444;13.556;2023-07-16T06:35:22;5.70;;;3.50;;
7051;SDS011;3567;52.444;13.556;2023-07-16T06:37:47;2.83;;;2.63;;
7051;SDS011;3567;52.444;13.556;2023-07-16T06:40:13;4.80;;;3.05;;
7051;SDS011;3567;52.444;13.556;2023-07-16T06:42:38;3.17;;;2.97;;
7051;SDS011;3567;52.444;13.556;2023-07-16T06:45:05;3.05;;;2.78;;
7051;SDS011;3567;52.444;13.556;2023-07-16T06:47:31;3.72;;;3.05;;
7051;SDS011;3567;52.444;13.556;2023-07-16T06:49:57;2.92;;;2.72;;
7051;SDS011;3567;52.444;13.556;2023-07-16T06:52:22;3.35;;;3.15;;
7051;SDS011;3567;52.444;13.556;2023-07-16T06:54:52;2.92;;;2.83;;
7051;SDS011;3567;52.444;13.556;2023-07-16T06:57:17;2.88;;;2.67;;
7051;SDS011;3567;52.444;13.556;2023-07-16T06:59:44;5.47;;;3.40;;
7051;SDS011;3567;52.444;13.556;2023-07-16T07:02:10;3.28;;;3.10;;
7051;SDS011;3567;52.444;13.556;2023-07-16T07:04:35;2.58;;;2.45;;
7051;SDS011;3567;52.444;13.556;2023-07-16T07:07:00;2.90;;;2.80;;
7051;SDS011;3567;52.444;13.556;2023-07-16T07:09:26;3.63;;;2.35;;
7051;SDS011;3567;52.444;13.556;2023-07-16T07:11:51;2.53;;;2.22;;
7051;SDS011;3567;52.444;13.556;2023-07-16T07:14:18;3.35;;;2.53;;
7051;SDS011;3567;52.444;13.556;2023-07-16T07:16:43;2.53;;;2.33;;
7051;SDS011;3567;52.444;13.556;2023-07-16T07:19:08;2.67;;;2.45;;
7051;SDS011;3567;52.444;13.556;2023-07-16T07:21:34;2.60;;;2.30;;
7051;SDS011;3567;52.444;13.556;2023-07-16T07:24:00;2.40;;;1.90;;
7051;SDS011;3567;52.444;13.556;2023-07-16T07:26:26;2.80;;;2.40;;
7051;SDS011;3567;52.444;13.556;2023-07-16T07:28:52;3.65;;;2.47;;
7051;SDS011;3567;52.444;13.556;2023-07-16T07:31:18;4.35;;;2.30;;
7051;SDS011;3567;52.444;13.556;2023-07-16T07:33:43;2.58;;;2.13;;
7051;SDS011;3567;52.444;13.556;2023-07-16T07:36:09;2.00;;;1.90;;
7051;SDS011;3567;52.444;13.556;2023-07-16T07:38:34;2.60;;;1.83;;
7051;SDS011;3567;52.444;13.556;2023-07-16T07:40:59;2.92;;;2.63;;
7051;SDS011;3567;52.444;13.556;2023-07-16T07:43:25;3.20;;;3.00;;
7051;SDS011;3567;52.444;13.556;2023-07-16T07:45:50;2.47;;;1.77;;
7051;SDS011;3567;52.444;13.556;2023-07-16T07:48:16;2.28;;;1.75;;
7051;SDS011;3567;52.444;13.556;2023-07-16T07:50:41;2.33;;;1.85;;
7051;SDS011;3567;52.444;13.556;2023-07-16T07:53:06;2.60;;;2.13;;
7051;SDS011;3567;52.444;13.556;2023-07-16T07:55:33;2.38;;;1.75;;
7051;SDS011;3567;52.444;13.556;2023-07-16T07:58:00;2.92;;;1.90;;
7051;SDS011;3567;52.444;13.556;2023-07-16T08:00:25;2.38;;;1.85;;
7051;SDS011;3567;52.444;13.556;2023-07-16T08:02:51;3.40;;;1.90;;
7051;SDS011;3567;52.444;13.556;2023-07-16T08:05:16;2.03;;;1.92;;
7051;SDS011;3567;52.444;13.556;2023-07-16T08:07:41;4.13;;;1.70;;
7051;SDS011;3567;52.444;13.556;2023-07-16T08:10:07;3.05;;;2.85;;
7051;SDS011;3567;52.444;13.556;2023-07-16T08:12:32;3.53;;;2.13;;
7051;SDS011;3567;52.444;13.556;2023-07-16T08:14:59;4.70;;;3.25;;
7051;SDS011;3567;52.444;13.556;2023-07-16T08:17:25;2.25;;;2.08;;
7051;SDS011;3567;52.444;13.556;2023-07-16T08:19:51;1.95;;;1.85;;
7051;SDS011;3567;52.444;13.556;2023-07-16T08:22:16;2.72;;;2.47;;
7051;SDS011;3567;52.444;13.556;2023-07-16T08:24:42;3.58;;;1.73;;
7051;SDS011;3567;52.444;13.556;2023-07-16T08:27:07;1.70;;;1.60;;
7051;SDS011;3567;52.444;13.556;2023-07-16T08:29:35;2.88;;;1.73;;
7051;SDS011;3567;52.444;13.556;2023-07-16T08:32:01;2.63;;;1.48;;
7051;SDS011;3567;52.444;13.556;2023-07-16T08:34:26;2.40;;;1.70;;
7051;SDS011;3567;52.444;13.556;2023-07-16T08:36:51;1.88;;;1.38;;
7051;SDS011;3567;52.444;13.556;2023-07-16T08:39:16;1.85;;;1.45;;
7051;SDS011;3567;52.444;13.556;2023-07-16T08:41:44;1.73;;;1.27;;
7051;SDS011;3567;52.444;13.556;2023-07-16T08:44:09;2.83;;;1.20;;
7051;SDS011;3567;52.444;13.556;2023-07-16T08:46:36;1.70;;;1.23;;
7051;SDS011;3567;52.444;13.556;2023-07-16T08:49:02;2.45;;;1.05;;
7051;SDS011;3567;52.444;13.556;2023-07-16T08:51:29;2.50;;;1.50;;
7051;SDS011;3567;52.444;13.556;2023-07-16T08:53:55;1.83;;;1.20;;
7051;SDS011;3567;52.444;13.556;2023-07-16T08:56:20;2.60;;;0.98;;
7051;SDS011;3567;52.444;13.556;2023-07-16T08:58:46;3.83;;;1.13;;
7051;SDS011;3567;52.444;13.556;2023-07-16T09:01:12;4.20;;;1.40;;
7051;SDS011;3567;52.444;13.556;2023-07-16T09:03:38;1.88;;;1.15;;
7051;SDS011;3567;52.444;13.556;2023-07-16T09:06:04;1.65;;;1.23;;
7051;SDS011;3567;52.444;13.556;2023-07-16T09:08:29;2.35;;;1.10;;
7051;SDS011;3567;52.444;13.556;2023-07-16T09:10:55;5.00;;;1.77;;
7051;SDS011;3567;52.444;13.556;2023-07-16T09:13:22;2.38;;;1.58;;
7051;SDS011;3567;52.444;13.556;2023-07-16T09:15:53;1.40;;;0.90;;
7051;SDS011;3567;52.444;13.556;2023-07-16T09:18:22;1.40;;;1.30;;
7051;SDS011;3567;52.444;13.556;2023-07-16T09:20:59;1.45;;;1.30;;
7051;SDS011;3567;52.444;13.556;2023-07-16T09:23:29;3.63;;;1.27;;
7051;SDS011;3567;52.444;13.556;2023-07-16T09:25:56;1.45;;;1.00;;
7051;SDS011;3567;52.444;13.556;2023-07-16T09:28:22;1.38;;;1.27;;
7051;SDS011;3567;52.444;13.556;2023-07-16T09:30:48;1.98;;;1.10;;
7051;SDS011;3567;52.444;13.556;2023-07-16T09:33:14;4.32;;;1.30;;
7051;SDS011;3567;52.444;13.556;2023-07-16T09:35:41;4.00;;;1.48;;
7051;SDS011;3567;52.444;13.556;2023-07-16T09:38:08;2.53;;;1.10;;
7051;SDS011;3567;52.444;13.556;2023-07-16T09:40:35;1.90;;;1.10;;
7051;SDS011;3567;52.444;13.556;2023-07-16T09:43:03;0.90;;;0.90;;
7051;SDS011;3567;52.444;13.556;2023-07-16T09:45:29;1.13;;;0.70;;
7051;SDS011;3567;52.444;13.556;2023-07-16T09:47:55;1.23;;;1.10;;
7051;SDS011;3567;52.444;13.556;2023-07-16T09:50:22;2.13;;;1.20;;
7051;SDS011;3567;52.444;13.556;2023-07-16T09:52:50;2.58;;;1.25;;
7051;SDS011;3567;52.444;13.556;2023-07-16T09:55:16;3.28;;;1.35;;
7051;SDS011;3567;52.444;13.556;2023-07-16T09:57:43;1.30;;;1.20;;
7051;SDS011;3567;52.444;13.556;2023-07-16T10:00:09;3.03;;;1.10;;
7051;SDS011;3567;52.444;13.556;2023-07-16T10:02:37;1.67;;;1.10;;
7051;SDS011;3567;52.444;13.556;2023-07-16T10:05:19;1.73;;;1.50;;
7051;SDS011;3567;52.444;13.556;2023-07-16T10:07:52;1.10;;;1.00;;
7051;SDS011;3567;52.444;13.556;2023-07-16T10:10:25;2.60;;;1.25;;
7051;SDS011;3567;52.444;13.556;2023-07-16T10:13:01;1.50;;;1.15;;
7051;SDS011;3567;52.444;13.556;2023-07-16T10:15:28;1.83;;;1.17;;
7051;SDS011;3567;52.444;13.556;2023-07-16T10:17:54;3.33;;;1.30;;
7051;SDS011;3567;52.444;13.556;2023-07-16T10:20:31;1.95;;;1.40;;
7051;SDS011;3567;52.444;13.556;2023-07-16T10:22:59;1.98;;;1.20;;
7051;SDS011;3567;52.444;13.556;2023-07-16T10:25:36;4.45;;;1.45;;
7051;SDS011;3567;52.444;13.556;2023-07-16T10:28:02;6.55;;;1.35;;
7051;SDS011;3567;52.444;13.556;2023-07-16T10:30:28;2.92;;;1.05;;
7051;SDS011;3567;52.444;13.556;2023-07-16T10:32:53;1.77;;;1.42;;
7051;SDS011;3567;52.444;13.556;2023-07-16T10:35:19;1.92;;;1.45;;
7051;SDS011;3567;52.444;13.556;2023-07-16T10:37:44;3.30;;;1.33;;
7051;SDS011;3567;52.444;13.556;2023-07-16T10:40:10;2.38;;;1.10;;
7051;SDS011;3567;52.444;13.556;2023-07-16T10:42:37;1.50;;;1.33;;
7051;SDS011;3567;52.444;13.556;2023-07-16T10:45:03;2.10;;;1.48;;
7051;SDS011;3567;52.444;13.556;2023-07-16T10:47:40;1.83;;;1.17;;
7051;SDS011;3567;52.444;13.556;2023-07-16T10:50:18;1.42;;;1.33;;
7051;SDS011;3567;52.444;13.556;2023-07-16T10:52:44;1.38;;;1.10;;
7051;SDS011;3567;52.444;13.556;2023-07-16T10:55:10;1.65;;;1.55;;
7051;SDS011;3567;52.444;13.556;2023-07-16T10:57:35;2.88;;;1.45;;
7051;SDS011;3567;52.444;13.556;2023-07-16T11:00:00;3.33;;;1.48;;
7051;SDS011;3567;52.444;13.556;2023-07-16T11:02:26;5.07;;;1.55;;
7051;SDS011;3567;52.444;13.556;2023-07-16T11:04:52;1.60;;;1.50;;
7051;SDS011;3567;52.444;13.556;2023-07-16T11:07:22;1.50;;;1.40;;
7051;SDS011;3567;52.444;13.556;2023-07-16T11:09:49;1.60;;;1.38;;
7051;SDS011;3567;52.444;13.556;2023-07-16T11:12:16;1.77;;;1.20;;
7051;SDS011;3567;52.444;13.556;2023-07-16T11:14:48;6.50;;;1.67;;
7051;SDS011;3567;52.444;13.556;2023-07-16T11:17:15;2.72;;;1.48;;
7051;SDS011;3567;52.444;13.556;2023-07-16T11:19:41;1.25;;;1.15;;
7051;SDS011;3567;52.444;13.556;2023-07-16T11:22:09;1.85;;;1.25;;
7051;SDS011;3567;52.444;13.556;2023-07-16T11:27:20;1.40;;;1.30;;
7051;SDS011;3567;52.444;13.556;2023-07-16T11:29:54;3.65;;;1.30;;
7051;SDS011;3567;52.444;13.556;2023-07-16T11:35:17;2.13;;;1.65;;
7051;SDS011;3567;52.444;13.556;2023-07-16T11:37:44;2.65;;;1.70;;
7051;SDS011;3567;52.444;13.556;2023-07-16T11:40:10;3.88;;;1.20;;
7051;SDS011;3567;52.444;13.556;2023-07-16T11:42:40;1.80;;;1.70;;
7051;SDS011;3567;52.444;13.556;2023-07-16T11:47:42;3.13;;;1.30;;
7051;SDS011;3567;52.444;13.556;2023-07-16T11:50:08;1.58;;;1.08;;
7051;SDS011;3567;52.444;13.556;2023-07-16T11:52:35;3.65;;;1.50;;
7051;SDS011;3567;52.444;13.556;2023-07-16T11:55:00;1.98;;;1.30;;
7051;SDS011;3567;52.444;13.556;2023-07-16T11:57:26;2.47;;;1.35;;
7051;SDS011;3567;52.444;13.556;2023-07-16T11:59:52;2.10;;;1.73;;
7051;SDS011;3567;52.444;13.556;2023-07-16T12:02:18;3.65;;;1.60;;
7051;SDS011;3567;52.444;13.556;2023-07-16T12:04:43;1.45;;;1.33;;
7051;SDS011;3567;52.444;13.556;2023-07-16T12:07:08;1.95;;;1.55;;
7051;SDS011;3567;52.444;13.556;2023-07-16T12:09:34;3.33;;;1.50;;
7051;SDS011;3567;52.444;13.556;2023-07-16T12:12:00;2.53;;;1.42;;
7051;SDS011;3567;52.444;13.556;2023-07-16T12:14:26;2.20;;;1.08;;
7051;SDS011;3567;52.444;13.556;2023-07-16T12:16:51;1.75;;;1.35;;
7051;SDS011;3567;52.444;13.556;2023-07-16T12:19:17;2.53;;;1.40;;
7051;SDS011;3567;52.444;13.556;2023-07-16T12:21:42;1.98;;;1.10;;
7051;SDS011;3567;52.444;13.556;2023-07-16T12:24:08;2.30;;;1.30;;
7051;SDS011;3567;52.444;13.556;2023-07-16T12:26:34;1.77;;;1.30;;
7051;SDS011;3567;52.444;13.556;2023-07-16T12:28:59;1.50;;;1.40;;
7051;SDS011;3567;52.444;13.556;2023-07-16T12:31:27;4.93;;;1.42;;
7051;SDS011;3567;52.444;13.556;2023-07-16T12:33:53;2.20;;;1.13;;
7051;SDS011;3567;52.444;13.556;2023-07-16T12:36:18;1.65;;;1.35;;
7051;SDS011;3567;52.444;13.556;2023-07-16T12:38:44;1.85;;;1.33;;
7051;SDS011;3567;52.444;13.556;2023-07-16T12:41:09;2.30;;;1.20;;
7051;SDS011;3567;52.444;13.556;2023-07-16T12:43:36;1.50;;;1.40;;
7051;SDS011;3567;52.444;13.556;2023-07-16T12:46:02;2.25;;;1.42;;
7051;SDS011;3567;52.444;13.556;2023-07-16T12:48:29;1.20;;;1.10;;
7051;SDS011;3567;52.444;13.556;2023-07-16T12:50:55;1.50;;;1.35;;
7051;SDS011;3567;52.444;13.556;2023-07-16T12:53:21;2.28;;;1.25;;
7051;SDS011;3567;52.444;13.556;2023-07-16T12:55:46;2.78;;;1.13;;
7051;SDS011;3567;52.444;13.556;2023-07-16T12:58:12;1.55;;;1.45;;
7051;SDS011;3567;52.444;13.556;2023-07-16T13:00:37;3.55;;;1.38;;
7051;SDS011;3567;52.444;13.556;2023-07-16T13:03:02;4.68;;;1.55;;
7051;SDS011;3567;52.444;13.556;2023-07-16T13:05:29;3.97;;;1.20;;
7051;SDS011;3567;52.444;13.556;2023-07-16T13:07:55;4.38;;;1.52;;
7051;SDS011;3567;52.444;13.556;2023-07-16T13:10:20;2.08;;;1.35;;
7051;SDS011;3567;52.444;13.556;2023-07-16T13:12:45;2.70;;;1.83;;
7051;SDS011;3567;52.444;13.556;2023-07-16T13:15:11;2.15;;;1.10;;
7051;SDS011;3567;52.444;13.556;2023-07-16T13:17:36;1.77;;;1.45;;
7051;SDS011;3567;52.444;13.556;2023-07-16T13:20:02;3.58;;;1.42;;
7051;SDS011;3567;52.444;13.556;2023-07-16T13:22:28;4.80;;;1.40;;
7051;SDS011;3567;52.444;13.556;2023-07-16T13:24:53;1.55;;;1.45;;
7051;SDS011;3567;52.444;13.556;2023-07-16T13:27:19;5.85;;;1.58;;
7051;SDS011;3567;52.444;13.556;2023-07-16T13:29:46;1.30;;;1.30;;
7051;SDS011;3567;52.444;13.556;2023-07-16T13:32:11;2.05;;;1.25;;
7051;SDS011;3567;52.444;13.556;2023-07-16T13:34:37;3.35;;;1.60;;
7051;SDS011;3567;52.444;13.556;2023-07-16T13:37:03;3.03;;;1.65;;
7051;SDS011;3567;52.444;13.556;2023-07-16T13:39:28;3.40;;;1.80;;
7051;SDS011;3567;52.444;13.556;2023-07-16T13:41:54;2.38;;;1.40;;
7051;SDS011;3567;52.444;13.556;2023-07-16T13:44:19;1.23;;;1.00;;
7051;SDS011;3567;52.444;13.556;2023-07-16T13:46:45;1.10;;;1.00;;
7051;SDS011;3567;52.444;13.556;2023-07-16T13:49:11;4.18;;;1.35;;
7051;SDS011;3567;52.444;13.556;2023-07-16T13:51:37;4.88;;;1.20;;
7051;SDS011;3567;52.444;13.556;2023-07-16T13:54:02;2.60;;;1.27;;
7051;SDS011;3567;52.444;13.556;2023-07-16T13:56:28;3.05;;;1.50;;
7051;SDS011;3567;52.444;13.556;2023-07-16T13:58:53;3.20;;;1.15;;
7051;SDS011;3567;52.444;13.556;2023-07-16T14:01:19;2.53;;;1.40;;
7051;SDS011;3567;52.444;13.556;2023-07-16T14:03:44;1.77;;;1.58;;
7051;SDS011;3567;52.444;13.556;2023-07-16T14:06:10;3.63;;;1.25;;
7051;SDS011;3567;52.444;13.556;2023-07-16T14:08:35;1.83;;;1.00;;
7051;SDS011;3567;52.444;13.556;2023-07-16T14:11:01;2.28;;;1.17;;
7051;SDS011;3567;52.444;13.556;2023-07-16T14:13:27;3.13;;;1.10;;
7051;SDS011;3567;52.444;13.556;2023-07-16T14:15:53;1.88;;;1.42;;
7051;SDS011;3567;52.444;13.556;2023-07-16T14:18:18;2.63;;;1.20;;
7051;SDS011;3567;52.444;13.556;2023-07-16T14:20:43;2.20;;;1.00;;
7051;SDS011;3567;52.444;13.556;2023-07-16T14:23:09;1.40;;;0.95;;
7051;SDS011;3567;52.444;13.556;2023-07-16T14:25:34;2.85;;;1.45;;
7051;SDS011;3567;52.444;13.556;2023-07-16T14:27:59;3.38;;;1.20;;
7051;SDS011;3567;52.444;13.556;2023-07-16T14:30:25;3.25;;;1.00;;
7051;SDS011;3567;52.444;13.556;2023-07-16T14:32:50;1.50;;;1.10;;
7051;SDS011;3567;52.444;13.556;2023-07-16T14:35:16;4.68;;;1.00;;
7051;SDS011;3567;52.444;13.556;2023-07-16T14:37:41;1.25;;;0.90;;
7051;SDS011;3567;52.444;13.556;2023-07-16T14:40:07;1.17;;;0.90;;
7051;SDS011;3567;52.444;13.556;2023-07-16T14:42:33;2.28;;;1.33;;
7051;SDS011;3567;52.444;13.556;2023-07-16T14:44:59;2.55;;;1.00;;
7051;SDS011;3567;52.444;13.556;2023-07-16T14:47:24;1.65;;;1.05;;
7051;SDS011;3567;52.444;13.556;2023-07-16T14:49:51;5.97;;;2.30;;
7051;SDS011;3567;52.444;13.556;2023-07-16T14:52:17;2.35;;;1.40;;
7051;SDS011;3567;52.444;13.556;2023-07-16T14:54:42;3.42;;;1.65;;
7051;SDS011;3567;52.444;13.556;2023-07-16T14:57:08;2.75;;;1.25;;
7051;SDS011;3567;52.444;13.556;2023-07-16T14:59:33;5.47;;;1.30;;
7051;SDS011;3567;52.444;13.556;2023-07-16T15:01:59;0.95;;;0.90;;
7051;SDS011;3567;52.444;13.556;2023-07-16T15:04:25;2.90;;;1.02;;
7051;SDS011;3567;52.444;13.556;2023-07-16T15:06:50;1.00;;;1.00;;
7051;SDS011;3567;52.444;13.556;2023-07-16T15:09:16;1.67;;;0.85;;
7051;SDS011;3567;52.444;13.556;2023-07-16T15:11:41;1.17;;;1.08;;
7051;SDS011;3567;52.444;13.556;2023-07-16T15:14:06;3.58;;;1.10;;